Time;durP1;ratioP1;P1;durP2;ratioP2;P2;SDS_P1;SDS_P2;PMS_P1;PMS_P2;Temp;Humidity;BMP_temperature;BMP_pressure;BME280_temperature;BME280_humidity;BME280_pressure;Samples;Min_cycle;Max_cycle;Signal;HPM_P1;HPM_P2
2021/06/04 00:00:38;;;;;;;0.22;0.22;;;18.30;68.80;;;;;;5054446;28;20029;-74
2021/06/04 00:03:15;;;;;;;0.15;0.15;;;18.30;68.50;;;;;;5053257;28;20024;-74
2021/06/04 00:05:44;;;;;;;0.30;0.30;;;18.30;68.70;;;;;;5036492;28;20017;-74
2021/06/04 00:08:11;;;;;;;0.20;0.20;;;18.20;68.60;;;;;;5054356;28;20507;-74
2021/06/04 00:10:43;;;;;;;0.10;0.10;;;18.00;69.50;;;;;;5053897;28;20385;-74
2021/06/04 00:13:12;;;;;;;0.30;0.30;;;17.90;69.80;;;;;;5053067;28;20112;-74
2021/06/04 00:15:38;;;;;;;0.10;0.10;;;17.80;70.00;;;;;;5054215;28;20166;-74
2021/06/04 00:18:03;;;;;;;0.52;0.52;;;17.80;70.40;;;;;;5054140;28;20040;-74
2021/06/04 00:20:29;;;;;;;0.38;0.35;;;17.60;70.00;;;;;;5054101;28;20025;-74
2021/06/04 00:22:55;;;;;;;2.03;1.38;;;17.40;71.10;;;;;;5036231;28;20028;-74
2021/06/04 00:25:22;;;;;;;0.82;0.80;;;17.30;71.30;;;;;;5052767;28;20381;-74
2021/06/04 00:27:48;;;;;;;0.30;0.30;;;17.20;71.70;;;;;;5036126;28;20028;-74
2021/06/04 00:30:15;;;;;;;0.20;0.20;;;17.20;71.50;;;;;;5053985;28;20032;-74
2021/06/04 00:32:42;;;;;;;0.40;0.40;;;17.30;71.80;;;;;;5053790;28;20516;-74
2021/06/04 00:35:10;;;;;;;0.30;0.30;;;17.30;72.20;;;;;;5036045;28;20480;-74
2021/06/04 00:37:37;;;;;;;0.90;0.90;;;17.30;71.30;;;;;;5053719;28;20033;-74
2021/06/04 00:40:25;;;;;;;1.45;0.90;;;17.30;71.00;;;;;;5052399;28;20358;-74
2021/06/04 00:42:51;;;;;;;0.43;0.43;;;17.20;71.00;;;;;;5052475;28;20082;-74
2021/06/04 00:45:22;;;;;;;1.98;0.85;;;17.00;71.80;;;;;;5052397;28;20481;-74
2021/06/04 00:47:48;;;;;;;0.35;0.35;;;16.90;73.10;;;;;;5053695;28;20020;-74
2021/06/04 00:50:23;;;;;;;0.30;0.30;;;16.90;72.40;;;;;;5052210;28;20044;-74
2021/06/04 00:52:49;;;;;;;0.30;0.30;;;17.00;72.50;;;;;;5052309;28;20033;-74
2021/06/04 00:55:19;;;;;;;0.20;0.20;;;17.10;71.80;;;;;;5053517;28;20078;-74
2021/06/04 00:57:46;;;;;;;0.20;0.20;;;17.20;71.50;;;;;;5052101;28;20392;-74
2021/06/04 01:00:18;;;;;;;0.55;0.55;;;17.20;71.70;;;;;;5052100;28;20028;-74
2021/06/04 01:02:44;;;;;;;0.17;0.17;;;17.20;72.10;;;;;;5053375;28;20017;-74
2021/06/04 01:05:12;;;;;;;0.60;0.60;;;17.20;72.00;;;;;;5053312;28;20025;-74
2021/06/04 01:08:04;;;;;;;0.52;0.52;;;17.40;71.90;;;;;;5053219;28;20494;-74
2021/06/04 01:10:40;;;;;;;0.30;0.30;;;17.20;72.30;;;;;;5051920;28;20492;-74
2021/06/04 01:13:12;;;;;;;10.75;1.58;;;17.10;72.80;;;;;;5053148;28;20052;-74
2021/06/04 01:15:57;;;;;;;3.60;0.73;;;17.00;73.30;;;;;;5051946;28;20090;-74
2021/06/04 01:18:26;;;;;;;0.20;0.20;;;17.20;73.10;;;;;;5051872;28;20427;-74
2021/06/04 01:21:01;;;;;;;0.20;0.20;;;17.30;72.90;;;;;;5051325;28;20060;-74
2021/06/04 01:23:51;;;;;;;0.20;0.20;;;17.40;72.30;;;;;;5052597;28;20025;-74
2021/06/04 01:26:29;;;;;;;0.20;0.20;;;17.50;71.70;;;;;;5051692;28;20109;-74
2021/06/04 01:29:32;;;;;;;0.20;0.20;;;17.30;72.10;;;;;;5051778;28;20048;-74
2021/06/04 01:32:09;;;;;;;0.20;0.20;;;17.30;71.60;;;;;;4997455;28;20047;-74
2021/06/04 01:34:43;;;;;;;0.20;0.20;;;17.20;72.40;;;;;;5051532;28;20075;-74
2021/06/04 01:37:14;;;;;;;0.25;0.25;;;17.10;72.70;;;;;;5052503;28;20075;-74
2021/06/04 01:39:52;;;;;;;0.17;0.17;;;16.90;73.10;;;;;;5051462;28;20389;-74
2021/06/04 01:42:25;;;;;;;0.95;0.95;;;16.80;73.60;;;;;;5052666;28;20315;-74
2021/06/04 01:45:06;;;;;;;0.20;0.20;;;16.90;73.70;;;;;;5034647;28;20116;-74
2021/06/04 01:47:36;;;;;;;0.20;0.20;;;17.00;73.20;;;;;;5052454;28;20028;-74
2021/06/04 01:50:12;;;;;;;0.40;0.40;;;17.00;73.20;;;;;;5034428;28;20029;-74
2021/06/04 01:52:40;;;;;;;0.25;0.25;;;17.10;72.60;;;;;;5052406;28;20029;-74
2021/06/04 01:55:18;;;;;;;0.20;0.20;;;17.20;72.50;;;;;;5051262;28;20052;-74
2021/06/04 01:58:04;;;;;;;0.20;0.20;;;17.10;72.90;;;;;;5050979;28;20060;-74
2021/06/04 02:00:42;;;;;;;0.20;0.20;;;17.10;73.30;;;;;;5050881;28;20021;-74
2021/06/04 02:03:11;;;;;;;0.10;0.10;;;17.20;73.00;;;;;;5052373;28;20092;-74
2021/06/04 02:05:38;;;;;;;0.20;0.20;;;17.00;73.30;;;;;;5052104;28;20090;-74
2021/06/04 02:08:07;;;;;;;0.10;0.10;;;17.00;73.40;;;;;;5052176;28;20028;-74
2021/06/04 02:10:41;;;;;;;0.10;0.10;;;16.90;73.90;;;;;;5052212;28;20112;-74
2021/06/04 02:13:09;;;;;;;0.20;0.20;;;16.70;74.70;;;;;;5052262;28;20025;-74
2021/06/04 02:15:41;;;;;;;0.20;0.20;;;16.70;75.40;;;;;;5052070;28;20032;-74
2021/06/04 02:18:13;;;;;;;0.20;0.20;;;16.80;75.20;;;;;;5052018;28;20032;-73
2021/06/04 02:20:42;;;;;;;;;;;16.80;75.30;;;;;;5051093;28;20124;-73
2021/06/04 02:23:22;;;;;;;0.30;0.30;;;17.00;74.40;;;;;;5051913;28;20307;-74
2021/06/04 02:26:06;;;;;;;0.20;0.20;;;17.10;74.10;;;;;;5033992;28;20032;-74
2021/06/04 02:29:01;;;;;;;0.20;0.20;;;17.00;74.50;;;;;;5050790;28;20029;-74
2021/06/04 02:32:01;;;;;;;0.52;0.52;;;17.10;74.50;;;;;;5037384;28;20506;-74
2021/06/04 02:34:34;;;;;;;0.20;0.20;;;17.10;74.00;;;;;;5037972;28;20040;-74
2021/06/04 02:37:44;;;;;;;0.93;0.60;;;17.10;73.90;;;;;;5050398;28;20090;-74
2021/06/04 02:40:19;;;;;;;0.52;0.40;;;17.00;74.60;;;;;;5020953;28;20036;-74
2021/06/04 02:42:50;;;;;;;0.20;0.20;;;17.00;74.40;;;;;;5051736;28;20025;-74
2021/06/04 02:45:20;;;;;;;0.20;0.20;;;16.90;74.90;;;;;;5050568;28;20032;-74
2021/06/04 02:47:49;;;;;;;0.10;0.10;;;16.80;75.20;;;;;;5033700;28;20029;-74
2021/06/04 02:50:22;;;;;;;0.30;0.30;;;16.60;76.20;;;;;;5033614;28;20139;-74
2021/06/04 02:52:48;;;;;;;0.20;0.20;;;16.60;76.10;;;;;;5051803;28;20025;-74
2021/06/04 02:55:28;;;;;;;0.17;0.17;;;16.50;76.60;;;;;;5033848;28;20489;-74
2021/06/04 02:57:54;;;;;;;0.40;0.40;;;16.30;77.40;;;;;;5051548;28;20451;-74
2021/06/04 03:00:23;;;;;;;0.20;0.20;;;16.10;78.20;;;;;;5051579;28;20101;-74
2021/06/04 03:02:49;;;;;;;0.68;0.68;;;16.00;79.00;;;;;;5050326;28;20025;-74
2021/06/04 03:05:22;;;;;;;0.10;0.10;;;16.00;79.50;;;;;;5050475;28;20025;-74
2021/06/04 03:07:48;;;;;;;0.30;0.30;;;16.00;79.00;;;;;;5050260;28;20044;-74
2021/06/04 03:10:16;;;;;;;0.30;0.30;;;16.00;78.60;;;;;;5051550;28;20451;-74
2021/06/04 03:12:45;;;;;;;0.30;0.30;;;16.00;78.10;;;;;;5050223;28;20104;-74
2021/06/04 03:15:33;;;;;;;2.88;2.67;;;16.00;78.30;;;;;;5051408;28;20384;-74
2021/06/04 03:18:00;;;;;;;0.30;0.30;;;16.00;78.50;;;;;;5050408;28;20503;-74
2021/06/04 03:20:32;;;;;;;0.17;0.17;;;16.00;78.50;;;;;;5051252;28;20437;-74
2021/06/04 03:22:58;;;;;;;;;;;16.00;79.10;;;;;;5050865;28;20063;-73
2021/06/04 03:25:28;;;;;;;0.32;0.32;;;16.00;78.80;;;;;;5049986;28;19905;-73
2021/06/04 03:27:54;;;;;;;0.17;0.17;;;16.10;78.80;;;;;;5050029;28;20029;-73
2021/06/04 03:30:26;;;;;;;0.20;0.20;;;16.00;79.10;;;;;;5051333;28;20032;-73
2021/06/04 03:32:52;;;;;;;0.15;0.15;;;16.20;79.10;;;;;;5051508;28;20024;-74
2021/06/04 03:35:18;;;;;;;0.20;0.20;;;16.20;78.30;;;;;;5051280;28;20025;-74
2021/06/04 03:37:44;;;;;;;0.20;0.20;;;16.00;79.20;;;;;;5049861;28;20029;-74
2021/06/04 03:40:15;;;;;;;0.20;0.20;;;15.90;79.90;;;;;;5051202;28;20040;-74
2021/06/04 03:42:42;;;;;;;0.15;0.15;;;16.10;79.30;;;;;;5049872;28;20032;-74
2021/06/04 03:45:12;;;;;;;0.25;0.25;;;16.00;79.50;;;;;;5051357;28;20027;-74
2021/06/04 03:47:38;;;;;;;0.40;0.40;;;15.90;79.90;;;;;;5053504;28;20072;-74
2021/06/04 03:50:07;;;;;;;0.20;0.20;;;16.00;80.10;;;;;;5053630;28;20106;-74
2021/06/04 03:52:33;;;;;;;3.20;1.77;;;16.00;80.20;;;;;;5053342;28;20021;-74
2021/06/04 03:54:59;;;;;;;0.10;0.10;;;15.90;80.40;;;;;;5053528;28;20035;-74
2021/06/04 03:57:29;;;;;;;0.40;0.40;;;15.90;80.50;;;;;;5053227;28;20552;-74
2021/06/04 03:59:56;;;;;;;0.30;0.30;;;16.00;80.30;;;;;;5053301;28;20021;-74
2021/06/04 04:02:24;;;;;;;0.30;0.30;;;15.90;80.50;;;;;;5053205;28;20403;-73
2021/06/04 04:04:55;;;;;;;0.32;0.32;;;15.70;81.20;;;;;;5036488;28;20477;-74
2021/06/04 04:07:21;;;;;;;0.20;0.20;;;15.60;81.90;;;;;;5054368;28;20139;-74
2021/06/04 04:09:47;;;;;;;0.20;0.20;;;15.70;82.30;;;;;;5054439;28;20053;-74
2021/06/04 04:12:12;;;;;;;0.43;0.43;;;15.80;82.00;;;;;;5053112;28;20029;-73
2021/06/04 04:14:38;;;;;;;0.20;0.20;;;15.90;81.60;;;;;;5054348;28;20029;-74
2021/06/04 04:17:04;;;;;;;0.40;0.40;;;16.00;80.80;;;;;;5036208;28;20047;-74
2021/06/04 04:19:30;;;;;;;0.50;0.50;;;16.20;80.20;;;;;;5052781;28;20385;-74
2021/06/04 04:21:57;;;;;;;4.97;1.95;;;16.50;79.30;;;;;;5053960;28;20043;-73
2021/06/04 04:24:29;;;;;;;0.50;0.50;;;16.60;78.30;;;;;;5054049;28;20017;-73
2021/06/04 04:26:55;;;;;;;0.57;0.57;;;16.60;77.80;;;;;;5053906;28;20065;-74
2021/06/04 04:29:22;;;;;;;0.43;0.43;;;16.60;78.10;;;;;;5052872;28;20445;-74
2021/06/04 04:31:52;;;;;;;0.30;0.30;;;16.60;78.40;;;;;;5052796;28;20028;-74
2021/06/04 04:34:19;;;;;;;0.20;0.20;;;16.70;78.80;;;;;;5036024;28;20442;-74
2021/06/04 04:36:51;;;;;;;0.30;0.30;;;16.90;78.70;;;;;;5052480;28;20114;-73
2021/06/04 04:39:20;;;;;;;0.20;0.20;;;17.10;77.70;;;;;;5052707;28;20029;-74
2021/06/04 04:41:47;;;;;;;0.20;0.20;;;17.40;76.90;;;;;;5052385;28;20021;-74
2021/06/04 04:44:15;;;;;;;0.17;0.17;;;17.60;79.10;;;;;;5052556;28;20025;-74
2021/06/04 04:46:41;;;;;;;0.20;0.20;;;17.80;77.00;;;;;;5053494;28;20031;-74
2021/06/04 04:49:06;;;;;;;0.20;0.20;;;17.80;75.20;;;;;;5052422;28;20096;-74
2021/06/04 04:51:34;;;;;;;0.47;0.35;;;17.90;75.20;;;;;;5053827;28;20036;-74
2021/06/04 04:54:00;;;;;;;1.30;1.20;;;17.90;74.80;;;;;;5053521;28;20481;-74
2021/06/04 04:56:26;;;;;;;0.75;0.75;;;17.60;75.60;;;;;;5052104;28;20039;-74
2021/06/04 04:58:52;;;;;;;0.30;0.30;;;17.40;76.70;;;;;;5053618;28;20060;-73
2021/06/04 05:01:19;;;;;;;0.25;0.25;;;17.40;77.70;;;;;;5053294;28;20017;-73
2021/06/04 05:03:45;;;;;;;0.90;0.90;;;17.40;78.30;;;;;;5053413;28;20018;-73
2021/06/04 05:06:11;;;;;;;2.03;0.28;;;17.50;78.60;;;;;;5051887;28;20261;-74
2021/06/04 05:08:37;;;;;;;0.20;0.20;;;17.70;77.90;;;;;;5051975;28;20056;-74
2021/06/04 05:11:04;;;;;;;0.20;0.20;;;17.80;77.40;;;;;;5053132;28;20025;-74
2021/06/04 05:13:31;;;;;;;4.97;1.05;;;17.80;77.10;;;;;;5051947;28;20029;-74
2021/06/04 05:15:59;;;;;;;0.10;0.10;;;17.90;76.80;;;;;;5051710;28;20060;-74
2021/06/04 05:18:25;;;;;;;0.20;0.20;;;17.90;77.10;;;;;;5042472;28;20389;-74
2021/06/04 05:20:52;;;;;;;0.10;0.10;;;17.90;77.10;;;;;;5087404;23;20552;-74
2021/06/04 05:23:18;;;;;;;0.20;0.20;;;18.10;77.10;;;;;;5051880;28;20025;-74
2021/06/04 05:25:46;;;;;;;0.20;0.20;;;18.20;76.90;;;;;;5048155;28;20018;-74
2021/06/04 05:28:14;;;;;;;0.40;0.40;;;18.30;76.80;;;;;;5015272;28;20037;-74
2021/06/04 05:30:43;;;;;;;0.10;0.10;;;18.40;76.40;;;;;;5028884;28;20123;-74
2021/06/04 05:33:12;;;;;;;0.10;0.10;;;18.50;75.60;;;;;;5013208;28;20030;-74
2021/06/04 05:35:38;;;;;;;0.10;0.10;;;18.50;75.70;;;;;;5014130;28;20041;-74
2021/06/04 05:38:04;;;;;;;0.10;0.10;;;18.60;75.10;;;;;;5013306;28;20034;-74
2021/06/04 05:40:35;;;;;;;0.10;0.10;;;18.70;74.70;;;;;;4994555;28;20044;-74
2021/06/04 05:43:03;;;;;;;0.20;0.20;;;18.80;76.10;;;;;;5011898;28;20026;-74
2021/06/04 05:45:31;;;;;;;0.10;0.10;;;18.90;76.20;;;;;;5012826;28;20272;-74
2021/06/04 05:47:58;;;;;;;0.10;0.10;;;19.10;76.30;;;;;;5012863;28;20034;-74
2021/06/04 05:50:29;;;;;;;0.13;0.13;;;19.20;77.80;;;;;;5012754;28;20113;-74
2021/06/04 05:52:55;;;;;;;0.10;0.10;;;19.30;76.90;;;;;;5012899;28;20065;-74
2021/06/04 05:55:24;;;;;;;0.15;0.15;;;19.40;77.60;;;;;;5012910;28;20060;-74
2021/06/04 05:57:51;;;;;;;0.30;0.30;;;19.40;75.30;;;;;;5012607;28;20029;-74
2021/06/04 06:00:25;;;;;;;1.77;0.90;;;19.50;75.00;;;;;;5012810;28;20112;-74
2021/06/04 06:02:51;;;;;;;0.47;0.47;;;19.50;75.90;;;;;;5012667;28;20022;-74
2021/06/04 06:05:18;;;;;;;0.17;0.17;;;19.40;75.20;;;;;;5013561;28;20033;-74
2021/06/04 06:07:43;;;;;;;0.30;0.30;;;19.50;75.10;;;;;;5012083;28;20037;-74
2021/06/04 06:10:10;;;;;;;0.10;0.10;;;19.50;74.50;;;;;;5012602;28;20026;-74
2021/06/04 06:12:36;;;;;;;0.52;0.52;;;19.60;73.70;;;;;;5011225;28;20026;-74
2021/06/04 06:15:04;;;;;;;0.65;0.65;;;19.70;72.80;;;;;;5012627;28;20033;-74
2021/06/04 06:17:29;;;;;;;0.30;0.30;;;19.60;72.00;;;;;;5012256;28;20382;-74
2021/06/04 06:19:55;;;;;;;0.40;0.40;;;19.50;71.40;;;;;;5012317;28;20026;-74
2021/06/04 06:22:21;;;;;;;0.60;0.38;;;19.60;71.20;;;;;;5009156;28;20113;-73
2021/06/04 06:24:47;;;;;;;0.20;0.20;;;19.70;71.20;;;;;;5010684;28;20385;-74
2021/06/04 06:27:13;;;;;;;0.10;0.10;;;19.70;70.30;;;;;;5013810;28;20414;-74
2021/06/04 06:29:39;;;;;;;0.45;0.45;;;19.90;69.00;;;;;;5025374;28;20512;-74
2021/06/04 06:32:06;;;;;;;0.30;0.30;;;19.80;66.60;;;;;;5022431;28;20111;-74
2021/06/04 06:34:33;;;;;;;1.00;0.90;;;19.80;67.50;;;;;;5024420;28;20033;-74
2021/06/04 06:36:59;;;;;;;0.10;0.10;;;19.80;68.30;;;;;;5011655;28;20034;-74
2021/06/04 06:39:28;;;;;;;0.25;0.25;;;19.80;69.10;;;;;;5028712;28;20469;-75
2021/06/04 06:41:56;;;;;;;0.10;0.10;;;20.00;69.90;;;;;;5023731;28;20049;-74
2021/06/04 06:44:22;;;;;;;0.20;0.20;;;20.10;70.10;;;;;;5020074;28;20046;-74
2021/06/04 06:46:49;;;;;;;0.10;0.10;;;20.30;70.50;;;;;;5024044;28;20037;-74
2021/06/04 06:49:15;;;;;;;0.10;0.10;;;20.50;70.10;;;;;;5011721;28;20026;-74
2021/06/04 06:51:42;;;;;;;0.10;0.10;;;20.50;70.30;;;;;;5016078;28;20431;-74
2021/06/04 06:54:10;;;;;;;0.10;0.10;;;20.70;70.20;;;;;;5026014;28;20109;-74
2021/06/04 06:56:37;;;;;;;0.17;0.17;;;20.90;70.20;;;;;;5029178;28;20060;-74
2021/06/04 06:59:03;;;;;;;0.10;0.10;;;20.90;69.10;;;;;;5025536;28;20045;-74
2021/06/04 07:01:29;;;;;;;0.10;0.10;;;21.10;69.00;;;;;;5029677;28;20113;-74
2021/06/04 07:03:55;;;;;;;0.32;0.20;;;21.30;66.10;;;;;;5026736;28;20120;-75
2021/06/04 07:06:27;;;;;;;0.10;0.10;;;21.50;65.30;;;;;;5025127;28;20587;-75
2021/06/04 07:08:54;;;;;;;0.10;0.10;;;21.70;64.70;;;;;;5021620;28;20040;-75
2021/06/04 07:11:22;;;;;;;0.10;0.10;;;21.80;63.90;;;;;;5026926;28;20090;-75
2021/06/04 07:13:50;;;;;;;0.10;0.10;;;21.80;63.90;;;;;;5015887;28;20053;-75
2021/06/04 07:16:16;;;;;;;0.20;0.20;;;21.80;63.20;;;;;;5026501;28;20033;-74
2021/06/04 07:18:42;;;;;;;0.10;0.10;;;21.90;63.00;;;;;;5018127;28;20476;-75
2021/06/04 07:21:11;;;;;;;0.10;0.10;;;22.00;63.40;;;;;;5029448;28;20084;-74
2021/06/04 07:23:37;;;;;;;4.55;4.25;;;22.10;62.60;;;;;;5031245;28;20465;-75
2021/06/04 07:26:05;;;;;;;0.10;0.10;;;22.00;63.50;;;;;;5025306;28;20092;-75
2021/06/04 07:28:33;;;;;;;0.47;0.47;;;22.10;63.90;;;;;;5021916;28;20022;-76
2021/06/04 07:31:02;;;;;;;0.03;0.03;;;22.10;63.50;;;;;;5024299;28;20151;-75
2021/06/04 07:33:32;;;;;;;0.10;0.10;;;22.20;62.90;;;;;;5025001;28;20014;-75
2021/06/04 07:36:00;;;;;;;0.28;0.28;;;22.30;61.50;;;;;;5031895;28;20343;-75
2021/06/04 07:38:26;;;;;;;0.20;0.20;;;22.40;61.30;;;;;;5026752;28;20034;-74
2021/06/04 07:40:53;;;;;;;0.10;0.10;;;22.30;61.00;;;;;;5021559;28;20030;-75
2021/06/04 07:43:25;;;;;;;0.40;0.40;;;22.30;61.50;;;;;;5022992;28;20052;-74
2021/06/04 07:45:52;;;;;;;0.10;0.10;;;22.20;59.40;;;;;;5019637;28;20053;-75
2021/06/04 07:48:19;;;;;;;0.10;0.10;;;22.30;59.70;;;;;;5027363;28;20037;-75
2021/06/04 07:50:46;;;;;;;0.10;0.10;;;22.40;59.90;;;;;;5013940;28;20473;-76
2021/06/04 07:53:16;;;;;;;0.10;0.10;;;22.50;60.30;;;;;;5022957;28;20054;-74
2021/06/04 07:55:43;;;;;;;0.10;0.10;;;22.70;60.50;;;;;;5024583;28;20032;-74
2021/06/04 07:58:09;;;;;;;0.30;0.30;;;22.50;60.80;;;;;;5023638;28;20022;-75
2021/06/04 08:00:37;;;;;;;0.08;0.08;;;22.70;61.10;;;;;;5024211;28;20033;-74
2021/06/04 08:03:05;;;;;;;0.20;0.20;;;22.80;61.10;;;;;;5030010;28;20393;-75
2021/06/04 08:05:32;;;;;;;0.10;0.10;;;22.80;61.20;;;;;;5032837;28;20029;-75
2021/06/04 08:07:58;;;;;;;0.32;0.32;;;23.00;61.80;;;;;;5019014;28;20461;-75
2021/06/04 08:10:24;;;;;;;0.20;0.20;;;23.10;60.50;;;;;;5019365;28;20037;-75
2021/06/04 08:12:51;;;;;;;0.10;0.10;;;23.00;61.00;;;;;;5017699;28;20030;-75
2021/06/04 08:15:41;;;;;;;0.10;0.10;;;23.10;61.70;;;;;;5019483;28;20034;-74
2021/06/04 08:18:07;;;;;;;0.00;0.00;;;22.90;62.20;;;;;;5025528;28;20026;-75
2021/06/04 08:20:36;;;;;;;0.03;0.03;;;23.10;61.90;;;;;;5023714;28;20097;-74
2021/06/04 08:23:06;;;;;;;0.38;0.38;;;23.40;61.00;;;;;;5017391;28;20101;-75
2021/06/04 08:25:38;;;;;;;0.20;0.20;;;23.40;60.70;;;;;;5013881;28;20582;-75
2021/06/04 08:28:04;;;;;;;0.10;0.10;;;23.50;61.60;;;;;;5018106;28;20025;-75
2021/06/04 08:30:30;;;;;;;7.93;1.60;;;23.90;60.40;;;;;;5013495;28;20440;-75
2021/06/04 08:32:56;;;;;;;0.10;0.10;;;23.90;59.30;;;;;;5024198;28;20110;-76
2021/06/04 08:35:22;;;;;;;0.10;0.10;;;23.70;59.20;;;;;;5023515;28;20113;-75
2021/06/04 08:37:48;;;;;;;0.10;0.10;;;24.00;58.40;;;;;;5017380;28;20029;-75
2021/06/04 08:40:19;;;;;;;0.10;0.10;;;24.20;58.20;;;;;;5014128;28;20030;-75
2021/06/04 08:42:54;;;;;;;0.10;0.10;;;24.70;57.60;;;;;;5014099;28;20026;-75
2021/06/04 08:45:55;;;;;;;2.50;2.30;;;24.70;57.50;;;;;;5027150;28;20272;-75
2021/06/04 08:48:53;;;;;;;0.10;0.10;;;24.50;57.20;;;;;;4951733;29;20494;-75
2021/06/04 08:51:40;;;;;;;0.10;0.10;;;24.60;58.00;;;;;;5030405;28;20062;-75
2021/06/04 08:54:21;;;;;;;0.00;0.00;;;24.80;56.70;;;;;;5023359;28;20034;-75
2021/06/04 08:57:11;;;;;;;0.10;0.10;;;24.70;57.60;;;;;;5017160;28;20032;-75
2021/06/04 08:59:38;;;;;;;0.10;0.10;;;25.00;56.30;;;;;;5028587;28;20056;-75
2021/06/04 09:02:10;;;;;;;0.32;0.32;;;25.20;55.70;;;;;;5015669;28;20084;-75
2021/06/04 09:04:47;;;;;;;1.00;0.75;;;25.30;55.30;;;;;;5021354;28;20025;-76
2021/06/04 09:07:14;;;;;;;0.32;0.32;;;25.60;55.00;;;;;;5013039;28;20128;-75
2021/06/04 09:09:40;;;;;;;0.35;0.20;;;25.70;54.30;;;;;;5019008;28;20030;-75
2021/06/04 09:12:15;;;;;;;0.00;0.00;;;25.80;54.30;;;;;;5013091;28;20033;-74
2021/06/04 09:14:42;;;;;;;0.35;0.35;;;25.70;54.70;;;;;;5023725;28;20026;-75
2021/06/04 09:17:17;;;;;;;0.32;0.32;;;25.60;54.60;;;;;;5010207;28;20033;-75
2021/06/04 09:19:48;;;;;;;1.60;0.63;;;25.40;54.70;;;;;;5018133;28;20026;-75
2021/06/04 09:22:14;;;;;;;;;;;25.30;55.10;;;;;;5019407;28;20107;-75
2021/06/04 09:24:42;;;;;;;0.30;0.20;;;25.40;55.50;;;;;;5025907;28;19905;-75
2021/06/04 09:27:29;;;;;;;0.40;0.38;;;25.50;55.40;;;;;;5018523;28;20112;-74
2021/06/04 09:30:19;;;;;;;0.10;0.10;;;25.60;55.00;;;;;;5017067;28;20494;-75
2021/06/04 09:33:08;;;;;;;0.15;0.15;;;25.80;55.00;;;;;;5013572;28;20025;-75
2021/06/04 09:35:36;;;;;;;0.20;0.20;;;26.00;54.30;;;;;;5014157;28;20032;-75
2021/06/04 09:38:16;;;;;;;0.00;0.00;;;25.90;53.50;;;;;;5013817;28;20032;-75
2021/06/04 09:40:43;;;;;;;5.30;1.90;;;26.00;54.30;;;;;;5011892;28;20026;-75
2021/06/04 09:43:18;;;;;;;8.80;0.60;;;25.50;54.50;;;;;;5009752;28;20050;-75
2021/06/04 09:45:55;;;;;;;0.00;0.00;;;25.60;54.40;;;;;;5011591;28;20470;-75
2021/06/04 09:48:35;;;;;;;0.00;0.00;;;26.00;53.90;;;;;;5012817;28;20026;-75
2021/06/04 09:51:07;;;;;;;0.00;0.00;;;26.50;52.90;;;;;;5013203;28;20022;-74
2021/06/04 09:53:33;;;;;;;4.35;1.33;;;26.70;52.30;;;;;;5013745;28;20493;-75
2021/06/04 09:56:07;;;;;;;6.80;0.63;;;26.70;51.60;;;;;;5013922;28;20022;-75
2021/06/04 09:59:00;;;;;;;0.00;0.00;;;26.70;51.80;;;;;;5013616;28;20033;-75
2021/06/04 10:01:30;;;;;;;0.03;0.03;;;27.00;51.60;;;;;;5011520;28;20121;-75
2021/06/04 10:04:11;;;;;;;0.10;0.10;;;27.40;50.80;;;;;;5018448;28;20017;-76
2021/06/04 10:06:44;;;;;;;0.65;0.60;;;27.50;50.80;;;;;;5032331;28;20021;-74
2021/06/04 10:09:43;;;;;;;2.05;0.90;;;27.10;50.20;;;;;;5031990;28;20091;-74
2021/06/04 10:12:39;;;;;;;0.30;0.30;;;27.20;50.50;;;;;;4998098;28;20044;-74
2021/06/04 10:15:41;;;;;;;0.00;0.00;;;27.30;50.30;;;;;;5032055;28;20025;-74
2021/06/04 10:18:33;;;;;;;0.00;0.00;;;27.50;50.10;;;;;;5031629;28;20036;-74
2021/06/04 10:21:25;;;;;;;0.30;0.30;;;27.80;49.60;;;;;;5031720;28;20032;-74
2021/06/04 10:23:53;;;;;;;1.52;1.42;;;28.20;49.70;;;;;;5028989;28;20029;-74
2021/06/04 10:26:36;;;;;;;0.13;0.10;;;27.90;49.20;;;;;;5031798;28;20053;-74
2021/06/04 10:29:08;;;;;;;0.10;0.10;;;27.90;49.40;;;;;;5031717;28;20029;-74
2021/06/04 10:31:45;;;;;;;0.20;0.20;;;28.20;48.80;;;;;;5031744;28;20034;-74
2021/06/04 10:34:21;;;;;;;0.32;0.32;;;28.50;47.50;;;;;;5031717;28;20026;-74
2021/06/04 10:36:52;;;;;;;0.17;0.17;;;28.60;47.10;;;;;;5031383;28;20017;-74
2021/06/04 10:39:39;;;;;;;2.08;1.90;;;28.60;47.30;;;;;;5031415;28;20025;-74
2021/06/04 10:42:27;;;;;;;0.73;0.73;;;28.20;47.30;;;;;;5031299;28;20421;-74
2021/06/04 10:45:23;;;;;;;0.00;0.00;;;28.20;47.80;;;;;;5028035;28;20021;-74
2021/06/04 10:48:07;;;;;;;0.30;0.30;;;28.20;48.40;;;;;;5025523;28;20472;-74
2021/06/04 10:51:05;;;;;;;5.15;3.30;;;28.70;47.30;;;;;;5018965;28;20049;-74
2021/06/04 10:53:42;;;;;;;0.10;0.10;;;28.90;47.20;;;;;;5014460;28;20052;-74
2021/06/04 10:56:16;;;;;;;0.00;0.00;;;29.60;46.10;;;;;;5034391;28;20036;-74
2021/06/04 10:59:02;;;;;;;;;;;;;;;;;;;;;
2021/06/04 11:01:58;;;;;;;0.55;0.50;;;30.30;45.00;;;;;;5034283;28;20022;-74
2021/06/04 11:04:44;;;;;;;0.25;0.25;;;30.30;44.50;;;;;;5034678;28;20025;-74
2021/06/04 11:07:26;;;;;;;1.15;1.08;;;30.30;44.50;;;;;;5021221;28;20465;-74
2021/06/04 11:10:00;;;;;;;0.10;0.10;;;30.40;44.00;;;;;;5013444;28;20108;-74
2021/06/04 11:12:44;;;;;;;0.35;0.35;;;30.40;43.60;;;;;;5013808;28;20021;-74
2021/06/04 11:15:21;;;;;;;0.28;0.10;;;30.70;42.90;;;;;;5014643;28;20053;-74
2021/06/04 11:18:04;;;;;;;0.47;0.40;;;30.80;42.70;;;;;;5015219;28;20417;-74
2021/06/04 11:20:47;;;;;;;0.47;0.38;;;30.80;42.20;;;;;;5015064;28;20056;-74
2021/06/04 11:23:39;;;;;;;0.30;0.28;;;30.50;42.90;;;;;;5092631;23;20044;-72
2021/06/04 11:26:13;;;;;;;;;;;30.30;43.50;;;;;;5019161;28;20514;-73
2021/06/04 11:28:54;;;;;;;0.00;0.00;;;30.40;43.10;;;;;;5033683;28;19913;-73
2021/06/04 11:31:47;;;;;;;0.43;0.43;;;30.70;43.10;;;;;;5033468;28;20021;-73
2021/06/04 11:34:38;;;;;;;0.00;0.00;;;30.70;41.80;;;;;;5033866;28;20677;-73
2021/06/04 11:37:07;;;;;;;0.00;0.00;;;30.50;41.70;;;;;;5034788;28;20036;-73
2021/06/04 11:39:36;;;;;;;0.05;0.05;;;30.70;41.30;;;;;;5033482;28;20064;-73
2021/06/04 11:42:08;;;;;;;1.25;0.68;;;30.70;41.10;;;;;;5034485;28;20056;-72
2021/06/04 11:44:53;;;;;;;0.15;0.15;;;30.70;41.00;;;;;;5034464;28;20042;-73
2021/06/04 11:47:19;;;;;;;0.10;0.10;;;30.60;41.10;;;;;;5034211;28;20026;-73
2021/06/04 11:49:57;;;;;;;0.00;0.00;;;30.10;41.40;;;;;;5017053;28;20108;-73
2021/06/04 11:52:33;;;;;;;3.83;1.05;;;30.00;41.60;;;;;;5044889;28;20145;-73
2021/06/04 11:55:22;;;;;;;0.00;0.00;;;29.20;41.80;;;;;;5037300;28;20427;-73
2021/06/04 11:58:02;;;;;;;0.00;0.00;;;28.90;43.30;;;;;;5036806;28;20016;-73
2021/06/04 12:00:38;;;;;;;0.95;0.35;;;29.00;42.40;;;;;;5054211;28;20063;-73
2021/06/04 12:03:09;;;;;;;0.00;0.00;;;29.10;43.30;;;;;;5052625;28;20057;-72
2021/06/04 12:05:44;;;;;;;0.00;0.00;;;29.10;42.40;;;;;;5052855;28;20103;-72
2021/06/04 12:08:24;;;;;;;0.20;0.20;;;29.30;43.10;;;;;;5033591;28;20049;-72
2021/06/04 12:10:53;;;;;;;0.10;0.10;;;29.50;43.60;;;;;;5032641;28;20566;-72
2021/06/04 12:13:41;;;;;;;0.10;0.10;;;29.60;43.20;;;;;;5032838;28;20603;-72
2021/06/04 12:16:29;;;;;;;0.10;0.10;;;29.50;42.50;;;;;;5033805;28;20049;-71
2021/06/04 12:19:27;;;;;;;0.28;0.28;;;29.60;42.60;;;;;;5032654;28;20385;-72
2021/06/04 12:22:09;;;;;;;0.20;0.20;;;29.60;42.30;;;;;;5033754;28;20476;-72
2021/06/04 12:24:36;;;;;;;0.45;0.40;;;29.40;41.40;;;;;;5045846;28;20028;-70
2021/06/04 12:27:10;;;;;;;1.00;0.98;;;29.40;41.30;;;;;;5052433;28;20037;-72
2021/06/04 12:29:45;;;;;;;0.20;0.20;;;29.30;42.40;;;;;;5053954;28;20032;-72
2021/06/04 12:32:16;;;;;;;1.10;0.80;;;29.40;42.60;;;;;;5052193;28;20492;-72
2021/06/04 12:34:47;;;;;;;0.03;0.03;;;29.60;41.10;;;;;;5051988;28;20393;-73
2021/06/04 12:37:19;;;;;;;0.00;0.00;;;29.40;40.60;;;;;;5052543;28;20488;-73
2021/06/04 12:40:06;;;;;;;1.75;1.65;;;29.20;41.30;;;;;;5053263;28;20384;-72
2021/06/04 12:42:56;;;;;;;0.85;0.63;;;29.10;41.80;;;;;;5052047;28;20147;-72
2021/06/04 12:45:55;;;;;;;1.50;0.43;;;29.00;41.20;;;;;;5053333;28;20362;-72
2021/06/04 12:48:24;;;;;;;0.00;0.00;;;29.10;41.70;;;;;;5042088;28;20080;-72
2021/06/04 12:50:56;;;;;;;0.25;0.25;;;29.00;40.70;;;;;;5051758;28;20048;-72
2021/06/04 12:53:26;;;;;;;0.32;0.32;;;29.20;40.90;;;;;;5034843;28;20021;-73
2021/06/04 12:56:01;;;;;;;0.00;0.00;;;29.40;40.40;;;;;;5052825;28;20020;-72
2021/06/04 12:58:33;;;;;;;0.00;0.00;;;29.50;40.10;;;;;;5051892;28;20100;-72
2021/06/04 13:01:04;;;;;;;0.55;0.55;;;29.60;40.00;;;;;;5051822;28;20047;-72
2021/06/04 13:03:34;;;;;;;0.10;0.10;;;29.40;40.10;;;;;;5052067;28;20025;-73
2021/06/04 13:06:01;;;;;;;0.55;0.55;;;29.20;39.50;;;;;;5052486;28;20029;-72
2021/06/04 13:08:38;;;;;;;0.30;0.30;;;29.00;39.80;;;;;;5052869;28;20032;-72
2021/06/04 13:11:06;;;;;;;0.10;0.10;;;28.90;40.50;;;;;;5068126;28;20098;-72
2021/06/04 13:13:41;;;;;;;0.30;0.20;;;28.30;41.00;;;;;;5052737;28;20020;-72
2021/06/04 13:16:23;;;;;;;0.00;0.00;;;28.20;39.90;;;;;;5051291;28;20021;-72